ADDS METAR Data INFO
IDs: Format: Raw Decoded Include TAF

Data at: 0353 UTC 18 Oct 2017

K3N8 180335Z AUTO 19013KT 10SM CLR 15/05 A2971 RMK AO2 T01450051
K3N8 180315Z AUTO 19014KT 10SM CLR 15/05 A2971 RMK AO2 T01460050
K3N8 180255Z AUTO 19014KT 10SM CLR 15/05 A2972 RMK AO2 T01500050
K3N8 180235Z AUTO 19013KT 10SM CLR 15/05 A2972 RMK AO2 T01510050
K3N8 180215Z AUTO 19012KT 10SM CLR 15/05 A2972 RMK AO2 T01500049
K3N8 180155Z AUTO 19012KT 10SM CLR 15/05 A2973 RMK AO2 T01500047
K3N8 180135Z AUTO 18010KT 10SM CLR 15/05 A2973 RMK AO2 T01490048
K3N8 180115Z AUTO 19013KT 10SM CLR 16/05 A2974 RMK AO2 T01550048
K3N8 180055Z AUTO 19013KT 10SM CLR 15/05 A2974 RMK AO2 T01540050
K3N8 180035Z AUTO 19011KT 10SM CLR 16/05 A2975 RMK AO2 T01560051
K3N8 180015Z AUTO 19010KT 10SM CLR 16/05 A2975 RMK AO2 T01560054
K3N8 172355Z AUTO 19009KT 10SM CLR 16/06 A2975 RMK AO2 T01620055 10217 20162
K3N8 172335Z AUTO 19010KT 10SM CLR 17/06 A2975 RMK AO2 T01720055
K3N8 172315Z AUTO 19011KT 10SM CLR 19/06 A2975 RMK AO2 T01850057
K3N8 172255Z AUTO 19011KT 10SM CLR 19/06 A2975 RMK AO2 T01940060
K3N8 172235Z AUTO 19012KT 10SM CLR 20/06 A2976 RMK AO2 T02040058
K3N8 172215Z AUTO 19014KT 10SM CLR 21/06 A2977 RMK AO2 T02100055
K3N8 172155Z AUTO 20016G19KT 10SM CLR 22/05 A2978 RMK AO2 T02150051
K3N8 172135Z AUTO 20017G23KT 10SM CLR 22/05 A2978 RMK AO2 T02150045
K3N8 172115Z AUTO 20015G20KT 10SM CLR 22/05 A2979 RMK AO2 T02160046
K3N8 172055Z AUTO 20016G23KT 10SM CLR 21/04 A2980 RMK AO2 T02140043
K3N8 172035Z AUTO 21014KT 10SM CLR 22/04 A2981 RMK AO2 T02160036
K3N8 172015Z AUTO 20014G21KT 10SM CLR 22/03 A2982 RMK AO2 T02160030
K3N8 171955Z AUTO 19015KT 10SM CLR 21/04 A2982 RMK AO2 T02130035
K3N8 171935Z AUTO 20014G18KT 10SM CLR 21/03 A2984 RMK AO2 T02090029
K3N8 171915Z AUTO 20013G19KT 10SM CLR 21/04 A2985 RMK AO2 T02050040
K3N8 171855Z AUTO 21014KT 10SM CLR 20/04 A2987 RMK AO2 T02010037
K3N8 171835Z AUTO 20012KT 10SM CLR 19/04 A2987 RMK AO2 T01930039
K3N8 171815Z AUTO 20013KT 10SM CLR 19/04 A2988 RMK AO2 T01900035
K3N8 171755Z AUTO 20013KT 10SM CLR 19/04 A2989 RMK AO2 T01860036 10189 20020
K3N8 171735Z AUTO 22013G18KT 10SM CLR 18/04 A2990 RMK AO2 T01820036
K3N8 171715Z AUTO 21012KT 10SM CLR 17/04 A2990 RMK AO2 T01710040
K3N8 171655Z AUTO 20011G15KT 10SM CLR 16/05 A2990 RMK AO2 T01580047
K3N8 171635Z AUTO 21012G16KT 10SM CLR 16/05 A2991 RMK AO2 T01550054
K3N8 171615Z AUTO 20012KT 10SM CLR 15/05 A2991 RMK AO2 T01450052
K3N8 171555Z AUTO 19013KT 10SM CLR 14/05 A2991 RMK AO2 T01420054
K3N8 171535Z AUTO 19010G14KT 10SM CLR 13/05 A2992 RMK AO2 T01250051
K3N8 171515Z AUTO 20009KT 10SM CLR 12/05 A2993 RMK AO2 T01180054
K3N8 171455Z AUTO 19009KT 10SM CLR 11/05 A2993 RMK AO2 T01110052
K3N8 171435Z AUTO 19010KT 10SM CLR 10/05 A2994 RMK AO2 T00970048
K3N8 171415Z AUTO 19007KT 10SM CLR 08/04 A2994 RMK AO2 T00840041
K3N8 171355Z AUTO 18007KT 10SM CLR 07/03 A2994 RMK AO2 T00660031
K3N8 171335Z AUTO 18005KT 10SM CLR 05/02 A2994 RMK AO2 T00510020
K3N8 171315Z AUTO 18008KT 10SM CLR 04/01 A2993 RMK AO2 T00390013
K3N8 171255Z AUTO 18006KT 10SM CLR 04/01 A2994 RMK AO2 T00350012
K3N8 171235Z AUTO 20003KT 10SM CLR 02/01 A2995 RMK AO2 T00240005
K3N8 171215Z AUTO 18005KT 10SM CLR 04/01 A2995 RMK AO2 T00370010
K3N8 171155Z AUTO 17005KT 10SM CLR 04/01 A2995 RMK AO2 T00390010 10068 20039
K3N8 171135Z AUTO 18006KT 10SM CLR 05/02 A2994 RMK AO2 T00450015
K3N8 171115Z AUTO 17006KT 10SM CLR 05/01 A2994 RMK AO2 T00450013
K3N8 171055Z AUTO 16005KT 10SM CLR 05/02 A2994 RMK AO2 T00480015
K3N8 171035Z AUTO 16006KT 10SM CLR 05/02 A2994 RMK AO2 T00460016
K3N8 171015Z AUTO 16005KT 10SM CLR 04/02 A2994 RMK AO2 T00420016
K3N8 170955Z AUTO 16006KT 10SM CLR 05/02 A2993 RMK AO2 T00480017
K3N8 170935Z AUTO 17005KT 10SM CLR 05/02 A2992 RMK AO2 T00480019
K3N8 170915Z AUTO 17005KT 10SM CLR 05/02 A2993 RMK AO2 T00510022
K3N8 170855Z AUTO 19005KT 10SM CLR 05/02 A2993 RMK AO2 T00500022
K3N8 170835Z AUTO 19004KT 10SM CLR 05/03 A2994 RMK AO2 T00530025
K3N8 170815Z AUTO 20006KT 10SM CLR 05/02 A2994 RMK AO2 T00500022
K3N8 170755Z AUTO 19006KT 10SM CLR 06/02 A2993 RMK AO2 T00550024
K3N8 170735Z AUTO 19005KT 10SM CLR 06/03 A2994 RMK AO2 T00610026
K3N8 170715Z AUTO 18005KT 10SM CLR 07/03 A2993 RMK AO2 T00660029
K3N8 170655Z AUTO 17006KT 10SM CLR 07/03 A2993 RMK AO2 T00650030
K3N8 170635Z AUTO 18004KT 10SM CLR 07/03 A2993 RMK AO2 T00650030
K3N8 170615Z AUTO 19006KT 10SM CLR 06/03 A2992 RMK AO2 T00600027
K3N8 170555Z AUTO 19005KT 10SM CLR 07/03 A2992 RMK AO2 T00650030 10135 20052 401970000
K3N8 170535Z AUTO 18006KT 10SM CLR 07/03 A2992 RMK AO2 T00660030
K3N8 170515Z AUTO 18003KT 10SM CLR 06/02 A2992 RMK AO2 T00600024
K3N8 170455Z AUTO 18006KT 10SM CLR 07/03 A2991 RMK AO2 T00720030
K3N8 170435Z AUTO 18005KT 10SM CLR 06/03 A2991 RMK AO2 T00640026
K3N8 170410Z AUTO 19006KT 10SM CLR 06/03 A2990 RMK AO2 T00570025
K3N8 170355Z AUTO 19006KT 10SM CLR 07/03 A2990 RMK AO2 T00650025
K3N8 170335Z AUTO 18005KT 10SM CLR 08/03 A2990 RMK AO2 T00770028
K3N8 170315Z AUTO 22003KT 10SM CLR 09/03 A2990 RMK AO2 T00880025
K3N8 170255Z AUTO 24003KT 10SM CLR 09/02 A2989 RMK AO2 T00930024
K3N8 170235Z AUTO 26005KT 10SM CLR 11/03 A2989 RMK AO2 T01060025
K3N8 170215Z AUTO 26004KT 10SM CLR 11/03 A2989 RMK AO2 T01090025
K3N8 170155Z AUTO 26005KT 10SM CLR 11/03 A2989 RMK AO2 T01050030
K3N8 170135Z AUTO 26007KT 10SM CLR 11/03 A2988 RMK AO2 T01120033
K3N8 170115Z AUTO 24008KT 10SM CLR 12/04 A2988 RMK AO2 T01240035
K3N8 170055Z AUTO 24006KT 10SM CLR 12/04 A2988 RMK AO2 T01200039
K3N8 170035Z AUTO 24007KT 10SM CLR 13/04 A2987 RMK AO2 T01320036
K3N8 170015Z AUTO 24006KT 10SM CLR 14/04 A2987 RMK AO2 T01350040
K3N8 162355Z AUTO 25006KT 10SM CLR 14/04 A2987 RMK AO2 T01350043 10197 20135
K3N8 162335Z AUTO 24006KT 10SM CLR 15/05 A2986 RMK AO2 T01530045
K3N8 162315Z AUTO 24008KT 10SM CLR 17/04 A2986 RMK AO2 T01680043
K3N8 162255Z AUTO 23010KT 10SM CLR 18/04 A2985 RMK AO2 T01800039
K3N8 162235Z AUTO 23008KT 10SM CLR 19/04 A2986 RMK AO2 T01860036
K3N8 162215Z AUTO 24014G20KT 10SM CLR 19/03 A2986 RMK AO2 T01900033
K3N8 162155Z AUTO 24015G21KT 10SM CLR 19/03 A2986 RMK AO2 T01920030
K3N8 162135Z AUTO 23019G23KT 10SM CLR 20/03 A2986 RMK AO2 T01960025
K3N8 162115Z AUTO 22019G25KT 10SM CLR 20/03 A2986 RMK AO2 T01960026
K3N8 162055Z AUTO 23018G26KT 10SM CLR 19/04 A2986 RMK AO2 T01920036
K3N8 162035Z AUTO 22020G25KT 10SM CLR 19/05 A2987 RMK AO2 T01920047
K3N8 162015Z AUTO 20018G27KT 10SM CLR 18/04 A2987 RMK AO2 T01780042
K3N8 161955Z AUTO 20019G24KT 10SM CLR 18/04 A2987 RMK AO2 T01750041
K3N8 161935Z AUTO 21020G25KT 10SM CLR 17/04 A2989 RMK AO2 T01710039
K3N8 161915Z AUTO 21020G26KT 10SM CLR 17/03 A2990 RMK AO2 T01700032
K3N8 161855Z AUTO 21021G27KT 10SM CLR 17/03 A2991 RMK AO2 T01670030
K3N8 161835Z AUTO 21018G28KT 10SM CLR 16/03 A2992 RMK AO2 T01610025
K3N8 161815Z AUTO 21020G26KT 10SM CLR 16/02 A2994 RMK AO2 T01580024
K3N8 161755Z AUTO 20018G23KT 10SM CLR 16/03 A2996 RMK AO2 T01560025 10156 20005
K3N8 161735Z AUTO 21015G23KT 10SM CLR 15/02 A2997 RMK AO2 T01490023
K3N8 161715Z AUTO 21019G22KT 10SM CLR 14/02 A2998 RMK AO2 T01430018
K3N8 161655Z AUTO 20015G21KT 10SM CLR 14/02 A2999 RMK AO2 T01360020
K3N8 161635Z AUTO 20013G20KT 10SM CLR 13/02 A3001 RMK AO2 T01310022
K3N8 161615Z AUTO 20016G20KT 10SM CLR 12/02 A3002 RMK AO2 T01190020
K3N8 161555Z AUTO 20014G19KT 10SM CLR 10/02 A3002 RMK AO2 T01030024